Time;durP1;ratioP1;P1;durP2;ratioP2;P2;SDS_P1;SDS_P2;PMS_P1;PMS_P2;Temp;Humidity;BMP_temperature;BMP_pressure;BME280_temperature;BME280_humidity;BME280_pressure;Samples;Min_cycle;Max_cycle;Signal;HPM_P1;HPM_P2
2023/01/05 00:01:55;;;;;;;7.93;5.47;;;3.90;99.90;5.20;97127.00;;;;5053676;28;20251;-87
2023/01/05 00:04:46;;;;;;;7.40;4.87;;;3.90;99.90;5.10;97122.00;;;;5050663;28;20215;-86
2023/01/05 00:07:34;;;;;;;7.53;4.73;;;4.20;99.90;5.20;97123.00;;;;5051697;28;20609;-85
2023/01/05 00:22:51;;;;;;;7.07;3.77;;;4.30;99.90;5.40;97076.00;;;;5051594;28;20196;-85
2023/01/05 00:25:41;;;;;;;5.90;3.90;;;4.00;99.90;5.20;97083.00;;;;5052380;28;20203;-86
2023/01/05 00:28:30;;;;;;;6.70;3.60;;;4.00;99.90;5.20;97075.00;;;;5051526;28;20945;-85
2023/01/05 00:31:19;;;;;;;5.17;3.97;;;4.00;99.90;5.00;97064.00;;;;5048506;28;20258;-85
2023/01/05 00:34:09;;;;;;;7.80;4.23;;;4.00;99.90;4.90;97078.00;;;;5051239;28;20208;-85
2023/01/05 00:36:58;;;;;;;5.50;3.93;;;3.80;99.90;4.90;97065.00;;;;5051614;28;20722;-86
2023/01/05 00:39:46;;;;;;;5.60;4.00;;;3.80;99.90;4.80;97072.00;;;;5050931;28;20236;-85
2023/01/05 00:42:35;;;;;;;4.70;3.67;;;3.80;99.90;4.60;97074.00;;;;5050457;28;20588;-85
2023/01/05 00:45:24;;;;;;;5.53;4.53;;;3.70;99.90;4.90;97082.00;;;;5048904;28;20205;-85
2023/01/05 00:48:12;;;;;;;10.17;4.03;;;3.70;99.90;5.10;97089.00;;;;5051250;28;20606;-85
2023/01/05 00:51:02;;;;;;;7.23;4.07;;;3.70;99.90;4.80;97105.00;;;;5051614;28;20216;-85
2023/01/05 00:53:51;;;;;;;8.83;4.73;;;3.70;99.90;5.00;97094.00;;;;5051457;28;20200;-84
2023/01/05 00:56:40;;;;;;;3.97;3.23;;;3.70;99.90;5.00;97102.00;;;;5051436;28;20231;-83
2023/01/05 00:59:29;;;;;;;7.33;5.27;;;3.70;99.90;5.00;97090.00;;;;5049233;28;20254;-83
2023/01/05 01:02:17;;;;;;;5.13;4.33;;;3.70;99.90;5.20;97091.00;;;;5051117;28;20299;-83
2023/01/05 01:05:08;;;;;;;7.93;4.27;;;3.80;99.90;5.30;97092.00;;;;5046782;28;20207;-84
2023/01/05 01:07:58;;;;;;;4.63;3.87;;;3.90;99.90;5.20;97094.00;;;;5047762;28;20595;-83
2023/01/05 01:10:46;;;;;;;10.60;6.10;;;3.90;99.90;4.90;97085.00;;;;5046119;28;20200;-82
2023/01/05 01:13:37;;;;;;;9.30;5.10;;;3.80;99.90;5.20;97091.00;;;;5042839;28;20251;-83
2023/01/05 01:16:26;;;;;;;6.57;4.67;;;3.80;99.90;5.20;97083.00;;;;5050045;28;20216;-83
2023/01/05 01:19:18;;;;;;;7.50;4.70;;;4.20;99.90;5.10;97086.00;;;;5049915;28;20209;-83
2023/01/05 01:22:06;;;;;;;12.20;4.67;;;3.80;99.90;4.80;97082.00;;;;5051463;28;20201;-84
2023/01/05 01:24:56;;;;;;;6.83;4.50;;;3.80;99.90;5.10;97081.00;;;;5050037;28;20200;-84
2023/01/05 01:27:45;;;;;;;8.57;5.07;;;5.30;99.90;5.10;97090.00;;;;5049647;28;20251;-84
2023/01/05 01:30:34;;;;;;;9.67;4.70;;;4.40;99.90;4.90;97084.00;;;;5050215;28;20246;-84
2023/01/05 01:33:22;;;;;;;6.87;4.07;;;3.90;99.90;4.70;97073.00;;;;5059220;28;20628;-84
2023/01/05 01:36:11;;;;;;;6.30;2.97;;;4.30;99.90;4.50;97045.00;;;;5039583;28;20224;-83
2023/01/05 01:39:00;;;;;;;5.47;3.83;;;3.80;99.90;4.90;97051.00;;;;5050004;28;20205;-84
2023/01/05 01:41:50;;;;;;;5.60;4.40;;;3.70;99.90;5.00;97042.00;;;;5050480;28;20232;-84
2023/01/05 01:44:57;;;;;;;8.07;3.93;;;3.90;99.90;4.90;97041.00;;;;5049040;28;20223;-84
2023/01/05 01:47:51;;;;;;;6.53;3.90;;;3.30;99.90;4.60;97053.00;;;;5050328;28;20243;-84
2023/01/05 01:50:46;;;;;;;5.77;3.77;;;3.70;99.90;4.70;97019.00;;;;5051562;28;20203;-84
2023/01/05 01:53:39;;;;;;;4.20;3.57;;;3.70;99.90;5.00;97020.00;;;;5048927;28;20209;-84
2023/01/05 01:56:36;;;;;;;5.30;2.80;;;3.70;99.90;4.20;97023.00;;;;5052037;28;20231;-83
2023/01/05 01:59:27;;;;;;;6.60;4.00;;;3.60;99.90;4.50;97021.00;;;;5050357;28;20423;-85
2023/01/05 02:02:16;;;;;;;5.00;3.33;;;3.70;99.90;4.40;97012.00;;;;5049081;28;20447;-85
2023/01/05 02:05:10;;;;;;;7.37;4.07;;;3.60;99.90;4.50;96983.00;;;;5049399;28;20444;-84
2023/01/05 02:07:59;;;;;;;8.80;5.20;;;3.60;99.90;4.50;97002.00;;;;5046070;28;20494;-85
2023/01/05 02:11:06;;;;;;;4.87;3.87;;;5.00;99.90;4.80;96982.00;;;;5049549;28;20204;-85
2023/01/05 02:14:14;;;;;;;4.23;3.37;;;3.50;99.90;4.80;96988.00;;;;5038041;28;20201;-86
2023/01/05 02:17:16;;;;;;;9.23;4.20;;;3.60;99.90;4.80;96986.00;;;;5044670;28;20305;-85
2023/01/05 02:20:42;;;;;;;8.10;4.10;;;3.60;99.90;5.10;96991.00;;;;5048033;28;20211;-85
2023/01/05 02:24:29;;;;;;;4.47;3.63;;;3.60;99.90;5.10;96981.00;;;;5049044;28;20293;-85
2023/01/05 02:27:48;;;;;;;6.97;4.33;;;3.70;99.90;5.00;96983.00;;;;5050080;28;20691;-85
2023/01/05 02:31:06;;;;;;;7.00;4.27;;;3.70;99.90;5.10;96974.00;;;;5047726;28;20283;-85
2023/01/05 02:34:15;;;;;;;6.33;4.07;;;3.70;99.90;4.80;96968.00;;;;5046884;28;20196;-85
2023/01/05 02:37:12;;;;;;;6.50;3.80;;;3.70;99.90;4.60;96961.00;;;;5049873;28;20228;-85
2023/01/05 02:40:10;;;;;;;6.60;4.53;;;3.70;99.90;4.90;96954.00;;;;5049427;28;20423;-86
2023/01/05 02:43:02;;;;;;;11.10;5.27;;;3.70;99.90;4.90;96969.00;;;;5049719;28;20489;-87
2023/01/05 02:45:50;;;;;;;8.63;4.53;;;3.70;99.90;4.30;96941.00;;;;5038548;28;20211;-85
2023/01/05 02:48:42;;;;;;;7.40;4.40;;;3.60;99.90;4.00;96943.00;;;;5050282;28;20606;-84
2023/01/05 02:51:36;;;;;;;13.67;5.60;;;3.40;99.90;4.50;96937.00;;;;5048803;28;20427;-85
2023/01/05 02:54:31;;;;;;;6.13;4.00;;;3.40;99.90;4.80;96951.00;;;;5048128;28;20815;-85
2023/01/05 02:57:45;;;;;;;7.27;4.07;;;3.40;99.90;4.90;96956.00;;;;5049154;28;20443;-85
2023/01/05 03:00:40;;;;;;;4.30;3.07;;;3.50;99.90;4.70;96940.00;;;;5048275;28;20450;-85
2023/01/05 03:03:35;;;;;;;8.73;4.07;;;3.60;99.90;4.50;96929.00;;;;5035505;28;20223;-86
2023/01/05 03:06:31;;;;;;;5.20;3.67;;;3.90;99.90;4.70;96947.00;;;;5049685;28;21134;-85
2023/01/05 03:09:24;;;;;;;2.77;2.43;;;3.60;99.90;4.70;96943.00;;;;5047189;28;20220;-85
2023/01/05 03:15:33;;;;;;;3.63;2.70;;;4.00;99.90;5.20;96931.00;;;;5025941;28;20691;-86
2023/01/05 03:18:22;;;;;;;4.20;2.70;;;3.80;99.90;4.80;96925.00;;;;5047684;28;20436;-85
2023/01/05 03:21:10;;;;;;;2.13;1.93;;;3.80;99.90;5.00;96932.00;;;;5049329;28;20200;-85
2023/01/05 03:36:47;;;;;;;3.93;2.40;;;3.80;99.90;5.30;96916.00;;;;5043300;28;20227;-85
2023/01/05 03:39:41;;;;;;;2.13;1.93;;;3.90;99.90;5.10;96905.00;;;;5050314;28;20227;-85
2023/01/05 03:42:30;;;;;;;3.47;1.70;;;3.90;99.90;4.60;96904.00;;;;5053269;28;20200;-85
2023/01/05 03:45:21;;;;;;;2.37;2.07;;;3.80;99.90;4.50;96892.00;;;;5051078;28;20216;-86
2023/01/05 03:48:10;;;;;;;4.70;3.63;;;4.80;99.90;4.60;96909.00;;;;5048678;28;20521;-85
2023/01/05 03:50:58;;;;;;;4.33;1.83;;;3.90;99.90;4.70;96890.00;;;;5051118;28;20424;-86
2023/01/05 03:53:47;;;;;;;3.33;2.90;;;3.70;99.90;4.50;96881.00;;;;5053301;28;20834;-84
2023/01/05 03:56:38;;;;;;;5.07;2.00;;;3.70;99.90;4.60;96882.00;;;;5052440;28;21000;-85
2023/01/05 03:59:27;;;;;;;2.73;2.43;;;3.60;99.90;4.70;96872.00;;;;5052548;28;20854;-85
2023/01/05 04:02:15;;;;;;;13.70;2.53;;;5.00;99.90;4.60;96870.00;;;;5051105;28;20463;-86
2023/01/05 04:05:05;;;;;;;3.23;2.10;;;3.60;99.90;4.20;96861.00;;;;5054827;28;20435;-83
2023/01/05 04:07:53;;;;;;;1.60;1.50;;;3.60;99.90;4.40;96879.00;;;;5051094;28;20223;-83
2023/01/05 04:10:42;;;;;;;2.10;1.70;;;3.50;99.90;4.10;96865.00;;;;5054822;28;20201;-82
2023/01/05 04:13:32;;;;;;;3.00;1.60;;;3.50;99.90;4.40;96872.00;;;;5051792;28;20462;-84
2023/01/05 04:16:21;;;;;;;1.80;1.70;;;3.50;99.90;4.60;96879.00;;;;5051353;28;20444;-85
2023/01/05 04:19:10;;;;;;;2.03;1.83;;;3.60;99.90;4.80;96875.00;;;;5049995;28;20212;-84
2023/01/05 04:21:59;;;;;;;2.33;2.13;;;3.60;99.90;4.90;96873.00;;;;5047971;28;20200;-86
2023/01/05 04:24:48;;;;;;;3.13;1.97;;;3.70;99.90;5.20;96870.00;;;;5041257;28;20934;-86
2023/01/05 04:27:37;;;;;;;3.30;1.67;;;3.80;99.90;5.10;96873.00;;;;5050691;28;20809;-86
2023/01/05 04:30:27;;;;;;;1.97;1.67;;;4.70;99.90;4.50;96866.00;;;;5051537;28;20443;-86
2023/01/05 04:33:16;;;;;;;2.33;2.13;;;3.80;99.90;4.70;96868.00;;;;5052751;28;20443;-83
2023/01/05 04:36:06;;;;;;;1.63;1.53;;;3.70;99.90;4.80;96858.00;;;;5040527;28;20845;-87
2023/01/05 04:38:55;;;;;;;2.33;1.67;;;3.70;99.90;4.70;96860.00;;;;5051133;28;20208;-86
2023/01/05 04:41:43;;;;;;;2.37;1.73;;;3.90;99.90;4.70;96856.00;;;;5052260;28;20707;-86
2023/01/05 04:44:32;;;;;;;1.73;1.30;;;3.80;99.90;4.80;96841.00;;;;5050794;28;20343;-85
2023/01/05 04:47:22;;;;;;;1.67;1.57;;;3.70;99.90;4.80;96847.00;;;;5050225;28;20451;-86
2023/01/05 04:50:11;;;;;;;1.70;1.60;;;3.80;99.90;5.10;96833.00;;;;5051395;28;20467;-85
2023/01/05 04:53:00;;;;;;;1.90;1.30;;;3.80;99.90;5.10;96844.00;;;;5052072;28;20477;-85
2023/01/05 04:55:49;;;;;;;1.87;1.17;;;4.70;99.90;5.00;96840.00;;;;5049978;28;20436;-85
2023/01/05 04:58:37;;;;;;;3.57;1.70;;;5.30;99.90;4.90;96855.00;;;;5051004;28;20208;-85
2023/01/05 05:01:26;;;;;;;6.40;1.37;;;5.00;99.90;4.90;96845.00;;;;5049853;28;20254;-85
2023/01/05 05:04:16;;;;;;;1.00;1.00;;;3.80;99.90;4.30;96831.00;;;;5051017;28;20205;-87
2023/01/05 05:07:05;;;;;;;2.10;1.53;;;3.60;99.90;4.70;96833.00;;;;5047014;28;20451;-84
2023/01/05 05:09:54;;;;;;;1.60;1.50;;;3.60;99.90;5.10;96842.00;;;;5045252;28;20463;-84
2023/01/05 05:12:43;;;;;;;0.97;0.97;;;3.70;99.90;4.90;96831.00;;;;5049996;28;20442;-85
2023/01/05 05:15:32;;;;;;;1.20;1.10;;;3.70;99.90;5.20;96827.00;;;;5049623;28;20683;-85
2023/01/05 05:18:21;;;;;;;1.37;1.27;;;3.80;99.90;4.90;96831.00;;;;5042232;28;20423;-86
2023/01/05 05:21:11;;;;;;;1.40;1.30;;;3.80;99.90;4.40;96825.00;;;;5052455;28;20427;-86
2023/01/05 05:23:59;;;;;;;1.07;1.00;;;3.70;99.90;4.70;96834.00;;;;5050351;28;20208;-86
2023/01/05 05:26:48;;;;;;;1.43;1.33;;;3.60;99.90;4.70;96817.00;;;;5050955;28;20448;-85
2023/01/05 05:29:37;;;;;;;2.53;1.00;;;3.60;99.90;5.00;96821.00;;;;5049127;28;20528;-85
2023/01/05 05:32:26;;;;;;;1.30;1.20;;;3.60;99.90;4.80;96825.00;;;;5059612;28;20675;-86
2023/01/05 05:35:15;;;;;;;1.30;1.20;;;3.60;99.90;5.00;96811.00;;;;5043718;28;20211;-86
2023/01/05 05:38:05;;;;;;;2.03;1.30;;;3.70;99.90;5.00;96810.00;;;;5046079;28;20435;-85
2023/01/05 05:40:54;;;;;;;1.40;1.17;;;3.70;99.90;5.10;96810.00;;;;5042476;28;20424;-86
2023/01/05 05:43:43;;;;;;;1.37;1.23;;;3.80;99.90;5.40;96806.00;;;;5050483;28;20258;-86
2023/01/05 05:46:31;;;;;;;1.13;1.00;;;5.30;99.90;5.00;96807.00;;;;5049438;28;20216;-87
2023/01/05 05:49:20;;;;;;;1.10;1.00;;;4.00;99.90;4.70;96802.00;;;;5050295;28;20252;-87
2023/01/05 05:52:09;;;;;;;2.87;1.20;;;3.80;99.90;5.10;96792.00;;;;5038018;28;20282;-87
2023/01/05 05:54:59;;;;;;;1.83;1.57;;;3.90;99.90;5.20;96794.00;;;;5050132;28;20197;-87
2023/01/05 05:57:48;;;;;;;1.50;1.40;;;3.90;99.90;4.90;96792.00;;;;5048588;28;20710;-87
2023/01/05 06:00:37;;;;;;;1.47;0.80;;;3.90;99.90;4.70;96782.00;;;;5048313;28;20201;-86
2023/01/05 06:03:25;;;;;;;1.20;1.10;;;3.80;99.90;4.50;96789.00;;;;5049738;28;20261;-86
2023/01/05 06:06:14;;;;;;;1.70;1.30;;;3.70;99.90;4.40;96792.00;;;;5046226;28;20220;-87
2023/01/05 06:09:03;;;;;;;4.03;2.27;;;3.70;99.90;4.90;96799.00;;;;5051129;28;20470;-85
2023/01/05 06:11:53;;;;;;;4.23;1.80;;;3.70;99.90;5.20;96807.00;;;;5039504;28;20439;-85
2023/01/05 06:14:42;;;;;;;1.97;1.77;;;3.80;99.90;5.30;96819.00;;;;5049965;28;20212;-85
2023/01/05 06:17:31;;;;;;;1.93;1.67;;;3.80;99.90;5.30;96829.00;;;;5048794;28;20228;-86
2023/01/05 06:20:20;;;;;;;2.67;1.60;;;3.90;99.90;5.50;96826.00;;;;5049684;28;20275;-85
2023/01/05 06:23:09;;;;;;;1.73;1.63;;;3.90;99.90;5.30;96811.00;;;;5047231;28;20195;-86
2023/01/05 06:25:58;;;;;;;1.30;1.20;;;4.00;99.90;5.50;96817.00;;;;5047612;28;20226;-85
2023/01/05 06:28:48;;;;;;;1.53;1.43;;;4.80;99.90;5.60;96815.00;;;;5042248;28;20204;-85
2023/01/05 06:31:37;;;;;;;1.83;1.43;;;4.10;99.90;5.20;96811.00;;;;5048365;28;20211;-86
2023/01/05 06:34:25;;;;;;;4.60;2.47;;;4.10;99.90;5.30;96813.00;;;;5049687;28;20212;-85
2023/01/05 06:37:14;;;;;;;1.37;1.27;;;4.70;99.90;5.40;96822.00;;;;5049377;28;20232;-85
2023/01/05 06:40:03;;;;;;;4.87;1.97;;;4.00;99.90;5.20;96807.00;;;;5047015;28;20557;-85
2023/01/05 06:42:52;;;;;;;1.90;1.70;;;4.00;99.90;5.00;96799.00;;;;5046679;28;20200;-85
2023/01/05 06:45:42;;;;;;;1.60;1.50;;;4.00;99.90;5.40;96796.00;;;;5047928;28;20698;-84
2023/01/05 06:48:31;;;;;;;4.33;2.47;;;4.00;99.90;5.40;96794.00;;;;5044411;28;20197;-85
2023/01/05 06:51:21;;;;;;;1.60;1.50;;;4.10;99.90;5.10;96786.00;;;;5045416;28;20819;-85
2023/01/05 06:54:10;;;;;;;2.97;1.90;;;4.00;99.90;5.10;96793.00;;;;5048642;28;20205;-85
2023/01/05 06:56:58;;;;;;;2.33;1.90;;;4.40;99.90;5.30;96788.00;;;;5043649;28;20208;-85
2023/01/05 06:59:47;;;;;;;3.03;2.20;;;4.00;99.90;5.50;96799.00;;;;5048465;28;20463;-86
2023/01/05 07:02:37;;;;;;;2.27;1.90;;;4.10;99.90;5.80;96785.00;;;;5047054;28;20197;-85
2023/01/05 07:05:26;;;;;;;6.87;3.10;;;4.20;99.90;5.90;96786.00;;;;5048961;28;20208;-85
2023/01/05 07:08:15;;;;;;;5.00;3.17;;;4.30;99.90;5.90;96783.00;;;;5045926;28;20271;-84
2023/01/05 07:11:04;;;;;;;5.60;2.10;;;4.30;99.90;5.80;96783.00;;;;5047404;28;20734;-86
2023/01/05 07:13:53;;;;;;;3.20;2.43;;;4.40;99.90;5.80;96801.00;;;;5042906;28;20200;-85
2023/01/05 07:16:41;;;;;;;5.43;4.93;;;4.40;99.90;5.90;96800.00;;;;5047111;28;20223;-86
2023/01/05 07:19:32;;;;;;;5.87;4.00;;;4.40;99.90;6.00;96794.00;;;;5046107;28;20200;-85
2023/01/05 07:22:20;;;;;;;9.70;4.50;;;4.50;99.90;6.00;96793.00;;;;5046010;28;20215;-85
2023/01/05 07:25:10;;;;;;;3.47;2.60;;;4.50;99.90;5.60;96801.00;;;;5049339;28;20212;-86
2023/01/05 07:27:59;;;;;;;5.07;2.87;;;4.40;99.90;5.70;96806.00;;;;5036656;28;20220;-85
2023/01/05 07:30:52;;;;;;;5.17;2.53;;;4.40;99.90;5.90;96807.00;;;;5056173;28;20228;-85
2023/01/05 07:33:41;;;;;;;6.70;3.50;;;4.40;99.90;6.00;96814.00;;;;5039863;28;20208;-85
2023/01/05 07:36:31;;;;;;;5.57;4.07;;;4.50;99.90;6.10;96814.00;;;;5044681;28;20505;-85
2023/01/05 07:39:19;;;;;;;5.67;3.80;;;5.10;99.90;6.10;96813.00;;;;5043885;28;20231;-85
2023/01/05 07:42:08;;;;;;;5.50;2.83;;;4.60;99.90;6.30;96823.00;;;;5044571;28;20205;-85
2023/01/05 07:44:57;;;;;;;4.10;2.97;;;4.60;99.90;6.00;96822.00;;;;5044929;28;20193;-84
2023/01/05 07:47:46;;;;;;;2.80;2.37;;;4.60;99.90;5.80;96815.00;;;;5046562;28;20341;-85
2023/01/05 07:50:35;;;;;;;2.07;1.53;;;4.60;99.90;6.00;96816.00;;;;5045714;28;20263;-85
2023/01/05 07:53:26;;;;;;;2.00;1.50;;;4.60;99.90;6.20;96818.00;;;;5045479;28;20220;-85
2023/01/05 07:56:15;;;;;;;2.80;1.40;;;4.70;99.90;6.40;96822.00;;;;5047597;28;20282;-85
2023/01/05 07:59:04;;;;;;;4.93;2.13;;;5.20;99.90;6.60;96811.00;;;;5048978;28;20275;-86
2023/01/05 08:01:53;;;;;;;2.33;1.90;;;4.90;99.90;6.80;96814.00;;;;5046199;28;20223;-85
2023/01/05 08:04:43;;;;;;;2.70;1.63;;;5.00;99.90;6.60;96828.00;;;;5048435;28;20201;-86
2023/01/05 08:07:31;;;;;;;3.40;1.20;;;5.00;99.90;6.30;96819.00;;;;5046803;28;20217;-85
2023/01/05 08:10:31;;;;;;;4.23;2.17;;;5.00;99.90;6.60;96824.00;;;;5038499;28;21037;-85
2023/01/05 08:16:26;;;;;;;5.97;1.50;;;5.20;99.90;6.90;96829.00;;;;5048330;28;20281;-85
2023/01/05 08:19:15;;;;;;;4.67;2.10;;;5.30;99.90;7.20;96811.00;;;;5046968;28;20212;-86
2023/01/05 08:22:04;;;;;;;2.60;2.20;;;5.40;99.90;6.90;96817.00;;;;5047106;28;20201;-86
2023/01/05 08:24:53;;;;;;;2.63;2.13;;;5.50;99.90;7.20;96819.00;;;;5050368;28;20209;-86
2023/01/05 08:27:43;;;;;;;3.83;2.80;;;5.50;99.90;7.10;96816.00;;;;5046561;28;20217;-87
2023/01/05 08:30:32;;;;;;;4.03;2.77;;;5.60;99.90;7.30;96827.00;;;;5048206;28;20224;-86
2023/01/05 08:33:20;;;;;;;6.20;4.70;;;5.70;99.90;6.90;96829.00;;;;5050010;28;20200;-86
2023/01/05 08:36:11;;;;;;;5.93;3.70;;;5.70;99.90;7.00;96827.00;;;;5049587;28;20258;-85
2023/01/05 08:39:10;;;;;;;9.27;5.13;;;5.70;99.90;7.10;96821.00;;;;5046811;28;20208;-86
2023/01/05 08:41:59;;;;;;;4.97;4.33;;;5.80;99.90;7.50;96830.00;;;;5049724;28;20597;-85
2023/01/05 08:44:51;;;;;;;3.50;2.67;;;5.80;99.90;7.50;96829.00;;;;5047242;28;20201;-85
2023/01/05 08:47:40;;;;;;;4.37;3.63;;;5.90;99.90;7.50;96823.00;;;;5051174;28;20220;-86
2023/01/05 08:50:29;;;;;;;4.60;2.87;;;6.00;99.90;7.60;96824.00;;;;5050560;28;20220;-86
2023/01/05 08:53:18;;;;;;;3.03;2.73;;;6.00;99.90;7.70;96837.00;;;;5051176;28;20672;-86
2023/01/05 08:56:08;;;;;;;2.70;2.33;;;6.10;99.90;8.10;96841.00;;;;5044929;28;20200;-85
2023/01/05 08:58:57;;;;;;;3.20;2.90;;;6.20;99.90;8.40;96835.00;;;;5046088;28;20709;-86
2023/01/05 09:01:48;;;;;;;3.70;2.60;;;6.40;99.90;8.10;96834.00;;;;5046549;28;20208;-86
2023/01/05 09:04:37;;;;;;;3.30;2.03;;;6.50;99.90;8.40;96850.00;;;;5050617;28;20211;-85
2023/01/05 09:07:27;;;;;;;4.13;2.27;;;6.60;99.90;8.50;96851.00;;;;5045656;28;20308;-86
2023/01/05 09:10:16;;;;;;;6.20;2.10;;;6.80;99.90;8.70;96853.00;;;;5050070;28;20254;-85
2023/01/05 09:13:04;;;;;;;4.23;2.67;;;6.90;99.90;8.90;96860.00;;;;5049458;28;20683;-86
2023/01/05 09:15:53;;;;;;;19.60;10.77;;;7.10;99.90;9.00;96862.00;;;;5050500;28;20686;-85
2023/01/05 09:18:43;;;;;;;8.53;5.70;;;7.20;99.90;9.40;96862.00;;;;5046864;28;20204;-85
2023/01/05 09:21:32;;;;;;;3.70;3.17;;;7.40;99.90;9.50;96858.00;;;;5043128;28;20204;-87
2023/01/05 09:24:21;;;;;;;3.03;2.47;;;7.50;99.90;9.40;96868.00;;;;5051305;28;20240;-86
2023/01/05 09:27:10;;;;;;;3.60;2.83;;;7.70;99.90;9.60;96871.00;;;;5044077;28;20307;-85
2023/01/05 09:29:59;;;;;;;5.47;3.80;;;7.80;99.90;9.00;96867.00;;;;5049333;28;20200;-86
2023/01/05 09:32:48;;;;;;;9.83;4.83;;;7.80;99.90;9.50;96853.00;;;;5046849;28;20208;-86
2023/01/05 09:35:38;;;;;;;6.90;3.57;;;7.90;99.90;9.90;96857.00;;;;5047931;28;20200;-86
2023/01/05 09:38:28;;;;;;;4.53;3.90;;;8.00;99.90;10.00;96861.00;;;;5048972;28;20671;-87
2023/01/05 09:41:22;;;;;;;5.03;3.77;;;8.20;99.90;10.40;96862.00;;;;5050475;28;20209;-87
2023/01/05 09:44:20;;;;;;;4.50;3.37;;;8.40;99.90;10.30;96869.00;;;;5039794;28;20667;-86
2023/01/05 09:47:17;;;;;;;5.37;3.27;;;8.50;99.90;10.50;96857.00;;;;5049978;28;20241;-87
2023/01/05 09:50:08;;;;;;;5.77;3.27;;;8.70;99.90;10.10;96852.00;;;;5044228;28;20201;-86
2023/01/05 09:53:01;;;;;;;3.10;2.53;;;8.70;99.90;10.90;96862.00;;;;5047242;28;20209;-85
2023/01/05 09:55:50;;;;;;;5.33;3.40;;;8.90;99.90;11.30;96852.00;;;;5044102;28;20204;-85
2023/01/05 09:58:41;;;;;;;4.20;3.10;;;9.10;99.90;10.50;96834.00;;;;5050011;28;20204;-87
2023/01/05 10:01:33;;;;;;;6.77;3.97;;;9.20;99.90;11.20;96842.00;;;;5049551;28;20208;-85
2023/01/05 10:04:25;;;;;;;4.93;4.03;;;9.30;99.90;11.30;96828.00;;;;5048441;28;20215;-86
2023/01/05 10:07:30;;;;;;;7.97;3.13;;;9.50;99.90;11.60;96837.00;;;;5042557;28;20221;-85
2023/01/05 10:10:32;;;;;;;6.50;2.97;;;9.60;99.90;11.80;96818.00;;;;5039143;28;20560;-86
2023/01/05 10:13:27;;;;;;;5.00;4.37;;;9.80;99.90;11.10;96828.00;;;;5046939;28;20212;-87
2023/01/05 10:16:18;;;;;;;3.37;3.07;;;9.80;99.90;11.60;96818.00;;;;5046288;28;20213;-86
2023/01/05 10:19:13;;;;;;;7.27;3.67;;;9.90;99.90;11.90;96820.00;;;;5048742;28;20211;-87
2023/01/05 10:22:12;;;;;;;5.67;2.83;;;10.00;99.90;12.30;96809.00;;;;5048196;28;20734;-86
2023/01/05 10:25:07;;;;;;;5.07;3.03;;;10.20;99.90;12.20;96818.00;;;;5048819;28;20200;-83
2023/01/05 10:28:09;;;;;;;12.90;6.47;;;10.40;99.90;12.20;96813.00;;;;5048250;28;20303;-87
2023/01/05 10:31:00;;;;;;;7.50;4.60;;;10.50;99.90;13.00;96792.00;;;;5047171;28;20200;-87
2023/01/05 10:33:52;;;;;;;3.57;2.90;;;10.80;99.90;13.60;96812.00;;;;5045224;28;20200;-87
2023/01/05 10:37:10;;;;;;;5.47;3.00;;;11.50;99.90;13.90;96780.00;;;;5046966;28;20224;-88
2023/01/05 10:40:31;;;;;;;3.77;2.57;;;12.20;99.90;14.60;96793.00;;;;5045772;28;20255;-87
2023/01/05 10:43:37;;;;;;;3.07;2.10;;;12.90;99.90;14.70;96798.00;;;;5049789;28;20251;-85
2023/01/05 10:46:26;;;;;;;4.20;2.90;;;13.40;99.90;14.10;96799.00;;;;5049432;28;20809;-86
2023/01/05 10:49:25;;;;;;;3.23;1.87;;;13.30;99.90;14.10;96802.00;;;;5046585;28;20322;-86
2023/01/05 10:52:19;;;;;;;0.60;0.40;;;13.10;99.90;14.50;96781.00;;;;5043397;28;20221;-83
2023/01/05 10:55:16;;;;;;;0.40;0.40;;;12.90;99.90;15.90;96768.00;;;;5047163;28;20283;-90
2023/01/05 10:58:05;;;;;;;1.87;0.83;;;13.40;99.90;15.90;96769.00;;;;5049187;28;20220;-85
2023/01/05 11:00:59;;;;;;;0.30;0.30;;;13.90;99.90;17.10;96764.00;;;;5045869;28;20203;-89
2023/01/05 11:03:50;;;;;;;0.33;0.20;;;14.80;99.90;17.20;96762.00;;;;5053814;28;20215;-90
2023/01/05 11:07:04;;;;;;;0.20;0.20;;;15.70;98.70;17.20;96736.00;;;;5042452;28;20527;-90
2023/01/05 11:09:54;;;;;;;1.02;0.20;;;15.90;95.40;18.10;96778.00;;;;5042608;28;20413;-90
2023/01/05 11:12:54;;;;;;;5.50;0.60;;;16.30;94.70;17.70;96750.00;;;;5045181;28;20893;-90
2023/01/05 11:15:49;;;;;;;0.50;0.20;;;16.50;92.40;17.10;96721.00;;;;5047440;28;20892;-86
2023/01/05 11:18:50;;;;;;;0.20;0.10;;;16.50;90.50;18.40;96755.00;;;;5051361;28;20405;-87
2023/01/05 11:21:44;;;;;;;0.70;0.30;;;16.70;90.00;18.20;96776.00;;;;5049314;28;20200;-88
2023/01/05 11:24:35;;;;;;;0.57;0.20;;;16.90;89.40;18.20;96785.00;;;;5047051;28;20204;-88
2023/01/05 11:27:25;;;;;;;1.30;0.40;;;16.80;88.20;17.80;96774.00;;;;5048981;28;20220;-87
2023/01/05 11:30:23;;;;;;;0.47;0.40;;;16.60;85.80;18.00;96773.00;;;;5043910;28;20712;-87
2023/01/05 11:33:24;;;;;;;0.60;0.40;;;15.20;86.90;18.00;96783.00;;;;5048826;28;20224;-87
2023/01/05 11:36:17;;;;;;;0.40;0.40;;;16.30;90.90;17.90;96769.00;;;;5047563;28;20216;-87
2023/01/05 11:39:26;;;;;;;0.20;0.20;;;16.10;91.20;17.60;96785.00;;;;5045764;28;20203;-87
2023/01/05 11:42:18;;;;;;;0.43;0.30;;;14.20;88.90;17.30;96777.00;;;;5045914;28;20209;-88
2023/01/05 11:45:22;;;;;;;2.53;0.40;;;15.80;88.50;17.30;96762.00;;;;5041218;28;20200;-87
2023/01/05 11:48:20;;;;;;;2.33;0.73;;;15.70;86.60;17.40;96764.00;;;;5046966;28;20317;-88
2023/01/05 11:51:08;;;;;;;2.33;0.50;;;15.80;90.20;17.80;96764.00;;;;5045798;28;20208;-86
2023/01/05 11:53:59;;;;;;;0.73;0.40;;;15.80;87.30;17.50;96756.00;;;;5044997;28;20204;-89
2023/01/05 11:57:08;;;;;;;0.57;0.40;;;15.90;88.90;17.40;96754.00;;;;5056743;28;20217;-90
2023/01/05 11:59:59;;;;;;;0.20;0.20;;;15.80;90.00;17.10;96745.00;;;;5048982;28;20200;-90
2023/01/05 12:03:13;;;;;;;1.00;0.57;;;15.80;87.90;17.30;96750.00;;;;5051804;28;20722;-89
2023/01/05 12:06:12;;;;;;;0.30;0.30;;;15.80;88.70;17.40;96728.00;;;;5046213;28;20680;-86
2023/01/05 12:09:16;;;;;;;1.43;1.17;;;15.80;87.40;17.70;96723.00;;;;5050058;28;20197;-90
2023/01/05 12:12:23;;;;;;;0.53;0.20;;;16.00;86.50;17.20;96716.00;;;;5049858;28;20710;-85
2023/01/05 12:15:50;;;;;;;2.57;0.90;;;16.10;81.70;18.00;96728.00;;;;5050213;28;20206;-88
2023/01/05 12:19:38;;;;;;;5.23;2.50;;;16.20;81.30;17.70;96743.00;;;;5052397;28;20206;-87
2023/01/05 12:23:01;;;;;;;1.93;1.17;;;16.50;81.80;17.60;96727.00;;;;5006148;28;20221;-89
2023/01/05 12:26:03;;;;;;;0.57;0.40;;;16.30;82.90;17.50;96745.00;;;;5052353;28;20203;-88
2023/01/05 12:29:51;;;;;;;0.43;0.30;;;16.20;80.10;17.20;96739.00;;;;5053213;28;20205;-89
2023/01/05 12:33:29;;;;;;;0.87;0.50;;;16.10;80.90;17.40;96741.00;;;;5050141;28;20370;-89
2023/01/05 12:37:01;;;;;;;0.30;0.30;;;16.00;82.50;16.90;96724.00;;;;5047539;28;20208;-88
2023/01/05 12:40:18;;;;;;;0.33;0.30;;;15.90;80.10;16.80;96702.00;;;;5053800;28;20211;-86
2023/01/05 12:43:11;;;;;;;0.60;0.40;;;15.90;79.90;17.00;96726.00;;;;5051791;28;20287;-90
2023/01/05 12:46:14;;;;;;;0.20;0.20;;;15.90;81.00;17.70;96725.00;;;;5053304;28;20255;-91
2023/01/05 12:49:10;;;;;;;1.30;0.40;;;16.20;81.20;17.50;96718.00;;;;5049791;28;20579;-88
2023/01/05 12:52:08;;;;;;;0.63;0.40;;;16.20;80.10;17.00;96713.00;;;;5050959;28;20208;-87
2023/01/05 12:55:05;;;;;;;4.83;0.57;;;16.00;81.40;16.90;96731.00;;;;5051525;28;20204;-86
2023/01/05 12:58:01;;;;;;;0.30;0.30;;;14.60;79.00;17.10;96732.00;;;;5049584;28;20710;-85
2023/01/05 13:00:53;;;;;;;1.80;1.70;;;16.90;78.20;17.20;96744.00;;;;5050962;28;20205;-90
2023/01/05 13:03:49;;;;;;;1.70;1.60;;;16.10;79.50;17.60;96740.00;;;;5047295;28;20608;-90
2023/01/05 13:06:42;;;;;;;6.67;4.97;;;16.10;78.60;17.30;96744.00;;;;5048712;28;20217;-86
2023/01/05 13:09:34;;;;;;;1.40;1.30;;;16.00;79.20;16.90;96740.00;;;;5051023;28;20578;-87
2023/01/05 13:12:24;;;;;;;1.70;1.10;;;16.00;77.50;16.90;96733.00;;;;5054688;28;20228;-86
2023/01/05 13:15:22;;;;;;;1.83;1.47;;;15.90;76.30;17.50;96734.00;;;;5045221;28;20212;-87
2023/01/05 13:18:17;;;;;;;2.07;1.77;;;16.20;77.60;17.60;96754.00;;;;5070357;22;20286;-63
2023/01/05 13:21:07;;;;;;;6.67;3.37;;;16.00;77.20;17.40;96747.00;;;;5046995;28;20228;-64
2023/01/05 13:24:06;;;;;;;10.90;6.87;;;16.00;77.60;17.30;96747.00;;;;5038142;28;20256;-64
2023/01/05 13:26:55;;;;;;;6.87;4.60;;;15.90;79.60;17.20;96757.00;;;;5030623;28;20216;-63
2023/01/05 13:29:48;;;;;;;5.43;3.97;;;15.80;78.70;17.30;96756.00;;;;5024115;28;20244;-64
2023/01/05 13:32:59;;;;;;;4.53;3.27;;;15.80;80.00;16.80;96762.00;;;;5037546;28;20367;-64
2023/01/05 13:36:07;;;;;;;3.13;1.60;;;15.60;79.90;17.10;96771.00;;;;5025706;28;20205;-62